Hlavní strana
METAR-TAF:

METAR-TAF

Letiště :

Ørland, Norsko

zeměpisná šířka: 63-42N, zeměpisná délka: 009-36E, výška: 0 m

Aktuální stav počasí

Zpráva byla vytvořena před 37 minutami, v 02:50 UTC
Východojihovýchodní vítr 9 kt
Teplota -2°C
Vlhkost vzduchu 80%
Tlak 1022 hPa
Viditelnost 10 km a více
Skoro jasno ve výšce 2000 ft
Polojasno ve výšce 12000 ft

METAR: ENOL 050250Z 11009KT 9999 FEW020 SCT120 M02/M05 Q1022

Čas: 05:27 (03:27 UTC)

Předpověď počasí

Předpověď platná od 05 v 00 UTC do 05 v 24 UTC
Jihovýchodní vítr 15 kt
Viditelnost 10 km a více
Skoro jasno ve výšce 3000 ft
Oblačno až skoro zataženo ve výšce 10000 ft
Dočasný
od 05 v 06 UTC do 05 v 10 UTC
Oblačno až skoro zataženo ve výšce 1400 ft

TAF: ENOL 0500/0524 13015KT 9999 FEW030 BKN100 TEMPO 0506/0510 BKN014

Stav a předpovědi počasí z více než 4 000 letišť (zprávy METAR a TAF).

Červené a žluté tečky na mapě představují dostupné meteorologické stanice.

Když kurzor umístíte na tečku, zobrazí se název stanice.

Pak kliknutím zobrazíte stav a předpověď počasí.

Chcete-li změnit mapu, kliknutím na zelené tlačítko se znaménkem +mapu přiblížíte, kliknutím na zelené tlačítko se znaménkem – mapu oddálíte a kliknutím na zelené šipky přejdete na sousední mapy.


METAR-TAF: